createdAt,value
2023-01-05T00:01:05.595Z,8.09
2023-01-05T00:03:34.165Z,8.10
2023-01-05T00:06:02.321Z,8.10
2023-01-05T00:08:34.807Z,8.11
2023-01-05T00:11:23.551Z,8.12
2023-01-05T00:14:08.800Z,8.12
2023-01-05T00:16:55.438Z,8.12
2023-01-05T00:19:41.238Z,8.11
2023-01-05T00:22:34.966Z,8.12
2023-01-05T00:25:11.793Z,8.14
2023-01-05T00:27:42.296Z,8.13
2023-01-05T00:30:10.813Z,8.13
2023-01-05T00:32:40.137Z,8.13
2023-01-05T00:35:08.840Z,8.12
2023-01-05T00:37:38.146Z,8.12
2023-01-05T00:40:07.154Z,8.13
2023-01-05T00:42:35.165Z,8.13
2023-01-05T00:45:03.759Z,8.13
2023-01-05T00:47:31.635Z,8.12
2023-01-05T00:50:00.797Z,8.12
2023-01-05T00:52:28.972Z,8.14
2023-01-05T00:54:56.957Z,8.15
2023-01-05T00:57:24.891Z,8.14
2023-01-05T00:59:54.811Z,8.15
2023-01-05T01:02:22.791Z,8.15
2023-01-05T01:04:50.954Z,8.14
2023-01-05T01:07:20.267Z,8.15
2023-01-05T01:09:48.118Z,8.15
2023-01-05T01:12:16.123Z,8.15
2023-01-05T01:14:47.025Z,8.15
2023-01-05T01:17:16.999Z,8.16
2023-01-05T01:19:46.574Z,8.17
2023-01-05T01:22:14.948Z,8.17
2023-01-05T01:24:44.176Z,8.17
2023-01-05T01:27:12.916Z,8.18
2023-01-05T01:29:40.876Z,8.17
2023-01-05T01:32:08.828Z,8.18
2023-01-05T01:34:36.873Z,8.17
2023-01-05T01:37:05.218Z,8.17
2023-01-05T01:39:38.946Z,8.17
2023-01-05T01:42:14.796Z,8.17
2023-01-05T01:44:53.624Z,8.18
2023-01-05T01:47:31.416Z,8.19
2023-01-05T01:50:02.366Z,8.18
2023-01-05T01:52:31.720Z,8.19
2023-01-05T01:55:02.128Z,8.19
2023-01-05T01:57:31.617Z,8.18
2023-01-05T02:00:03.709Z,8.19
2023-01-05T02:02:33.259Z,8.17
2023-01-05T02:05:06.339Z,8.18
2023-01-05T02:07:38.707Z,8.18
2023-01-05T02:10:08.116Z,8.20
2023-01-05T02:12:48.687Z,8.18
2023-01-05T02:15:28.484Z,8.18
2023-01-05T02:18:10.236Z,8.20
2023-01-05T02:20:52.988Z,8.19
2023-01-05T02:24:01.499Z,8.18
2023-01-05T02:27:15.803Z,8.18
2023-01-05T02:30:08.349Z,8.20
2023-01-05T02:32:48.646Z,8.22
2023-01-05T02:35:27.567Z,8.22
2023-01-05T02:38:02.613Z,8.22
2023-01-05T02:40:35.493Z,8.24
2023-01-05T02:43:07.532Z,8.24
2023-01-05T02:45:35.610Z,8.24
2023-01-05T02:48:05.230Z,8.26
2023-01-05T02:50:39.509Z,8.27
2023-01-05T02:53:18.308Z,8.26
2023-01-05T02:55:50.337Z,8.29
2023-01-05T02:58:24.749Z,8.29
2023-01-05T03:00:56.939Z,8.29
2023-01-05T03:03:35.426Z,8.31
2023-01-05T03:06:09.396Z,8.32
2023-01-05T03:08:44.800Z,8.32
2023-01-05T03:11:32.779Z,8.34
2023-01-05T03:14:09.664Z,8.36
2023-01-05T03:16:39.820Z,8.36
2023-01-05T03:19:31.601Z,8.37
2023-01-05T03:22:20.514Z,8.40
2023-01-05T03:25:07.356Z,8.40
2023-01-05T03:27:56.696Z,8.42
2023-01-05T03:30:51.919Z,8.42
2023-01-05T03:33:46.192Z,8.44
2023-01-05T03:36:19.639Z,8.48
2023-01-05T03:38:51.768Z,8.49
2023-01-05T03:41:23.344Z,8.50
2023-01-05T03:43:52.415Z,8.52
2023-01-05T03:46:23.053Z,8.52
2023-01-05T03:48:51.835Z,8.54
2023-01-05T03:51:22.730Z,8.55
2023-01-05T03:53:50.681Z,8.58
2023-01-05T03:56:18.811Z,8.63
2023-01-05T03:58:46.623Z,8.66
2023-01-05T04:01:14.971Z,8.69
2023-01-05T04:03:43.746Z,8.73
2023-01-05T04:06:12.336Z,8.77
2023-01-05T04:08:42.029Z,8.77
2023-01-05T04:11:16.397Z,8.79
2023-01-05T04:13:49.312Z,8.81
2023-01-05T04:16:18.161Z,8.85
2023-01-05T04:18:46.537Z,8.85
2023-01-05T04:21:17.455Z,8.86
2023-01-05T04:23:47.168Z,8.89
2023-01-05T04:26:16.268Z,8.90
2023-01-05T04:28:50.069Z,8.90
2023-01-05T04:31:20.737Z,8.91
2023-01-05T04:33:49.970Z,8.93
2023-01-05T04:36:20.978Z,8.95
2023-01-05T04:38:51.469Z,8.93
2023-01-05T04:41:19.361Z,8.96
2023-01-05T04:43:50.202Z,8.96
2023-01-05T04:46:18.375Z,8.96
2023-01-05T04:48:49.116Z,8.95
2023-01-05T04:51:19.289Z,8.97
2023-01-05T04:53:47.358Z,8.96
2023-01-05T04:56:19.750Z,8.97
2023-01-05T04:58:49.795Z,8.95
2023-01-05T05:01:17.841Z,8.96
2023-01-05T05:03:50.825Z,8.96
2023-01-05T05:06:21.343Z,8.94
2023-01-05T05:08:50.714Z,8.95
2023-01-05T05:11:20.502Z,8.96
2023-01-05T05:13:50.063Z,8.94
2023-01-05T05:16:18.554Z,8.93
2023-01-05T05:18:48.349Z,8.95
2023-01-05T05:21:21.569Z,8.93
2023-01-05T05:23:49.426Z,8.93
2023-01-05T05:26:17.487Z,8.92
2023-01-05T05:28:48.789Z,8.93
2023-01-05T05:31:16.686Z,8.92
2023-01-05T05:33:44.804Z,8.92
2023-01-05T05:36:12.719Z,8.92
2023-01-05T05:38:40.603Z,8.92
2023-01-05T05:41:08.429Z,8.91
2023-01-05T05:43:36.611Z,8.89
2023-01-05T05:46:06.214Z,8.89
2023-01-05T05:48:34.101Z,8.87
2023-01-05T05:51:01.979Z,8.88
2023-01-05T05:53:29.826Z,8.88
2023-01-05T05:55:57.759Z,8.87
2023-01-05T05:58:25.652Z,8.86
2023-01-05T06:00:58.006Z,8.86
2023-01-05T06:03:27.306Z,8.86
2023-01-05T06:05:55.239Z,8.86
2023-01-05T06:08:24.006Z,8.86
2023-01-05T06:10:52.019Z,8.84
2023-01-05T06:13:20.164Z,8.84
2023-01-05T06:15:48.515Z,8.84
2023-01-05T06:18:16.985Z,8.84
2023-01-05T06:20:46.853Z,8.84
2023-01-05T06:23:14.724Z,8.85
2023-01-05T06:25:42.594Z,8.84
2023-01-05T06:28:10.391Z,8.87
2023-01-05T06:30:38.340Z,8.91
2023-01-05T06:33:06.221Z,8.91
2023-01-05T06:35:34.215Z,8.94
2023-01-05T06:38:03.414Z,8.93
2023-01-05T06:40:31.245Z,8.91
2023-01-05T06:42:59.344Z,8.93
2023-01-05T06:45:27.228Z,8.93
2023-01-05T06:47:55.161Z,8.91
2023-01-05T06:50:23.032Z,8.89
2023-01-05T06:52:50.886Z,8.86
2023-01-05T06:55:21.859Z,8.83
2023-01-05T06:57:49.712Z,8.80
2023-01-05T07:00:18.355Z,8.79
2023-01-05T07:02:46.870Z,8.73
2023-01-05T07:05:14.725Z,8.71
2023-01-05T07:07:42.783Z,8.72
2023-01-05T07:10:11.047Z,8.69
2023-01-05T07:12:40.340Z,8.68
2023-01-05T07:15:10.723Z,8.68
2023-01-05T07:17:38.629Z,8.70
2023-01-05T07:20:07.887Z,8.71
2023-01-05T07:22:35.806Z,8.73
2023-01-05T07:25:03.686Z,8.73
2023-01-05T07:27:31.890Z,8.76
2023-01-05T07:30:01.497Z,8.76
2023-01-05T07:32:29.743Z,8.77
2023-01-05T07:34:58.011Z,8.77
2023-01-05T07:37:26.283Z,8.79
2023-01-05T07:39:54.473Z,8.82
2023-01-05T07:42:22.657Z,8.86
2023-01-05T07:44:52.698Z,8.88
2023-01-05T07:47:22.536Z,8.86
2023-01-05T07:49:50.401Z,8.86
2023-01-05T07:52:18.301Z,8.87
2023-01-05T07:54:46.409Z,8.85
2023-01-05T07:57:14.285Z,8.86
2023-01-05T07:59:42.188Z,8.87
2023-01-05T08:02:10.691Z,8.89
2023-01-05T08:04:40.224Z,8.88
2023-01-05T08:07:11.111Z,8.89
2023-01-05T08:09:56.673Z,8.90
2023-01-05T08:12:24.556Z,8.89
2023-01-05T08:14:52.452Z,8.92
2023-01-05T08:17:20.319Z,8.93
2023-01-05T08:19:49.583Z,8.93
2023-01-05T08:22:17.458Z,8.94
2023-01-05T08:24:45.209Z,8.97
2023-01-05T08:27:13.140Z,8.95
2023-01-05T08:29:40.986Z,8.93
2023-01-05T08:32:08.992Z,8.94
2023-01-05T08:34:37.156Z,8.94
2023-01-05T08:37:06.353Z,8.93
2023-01-05T08:39:35.886Z,8.93
2023-01-05T08:42:03.770Z,8.92
2023-01-05T08:44:31.703Z,8.92
2023-01-05T08:46:59.709Z,8.92
2023-01-05T08:49:27.568Z,8.94
2023-01-05T08:51:55.785Z,8.92
2023-01-05T08:54:25.049Z,8.94
2023-01-05T08:56:52.940Z,8.92
2023-01-05T08:59:20.869Z,8.95
2023-01-05T09:01:49.767Z,8.97
2023-01-05T09:04:18.177Z,8.97
2023-01-05T09:06:46.093Z,8.96
2023-01-05T09:09:14.065Z,8.96
2023-01-05T09:11:43.361Z,8.93
2023-01-05T09:14:14.432Z,8.94
2023-01-05T09:17:06.595Z,8.94
2023-01-05T09:19:30.225Z,8.95
2023-01-05T09:21:58.260Z,8.94
2023-01-05T09:24:26.216Z,8.94
2023-01-05T09:26:55.633Z,8.94
2023-01-05T09:29:23.649Z,8.93
2023-01-05T09:31:51.502Z,8.97
2023-01-05T09:34:19.778Z,8.97
2023-01-05T09:36:47.671Z,8.97
2023-01-05T09:39:15.584Z,8.96
2023-01-05T09:41:46.409Z,8.96
2023-01-05T09:44:27.474Z,8.97
2023-01-05T09:46:58.754Z,8.98
2023-01-05T09:49:28.441Z,9.01
2023-01-05T09:52:00.320Z,9.03
2023-01-05T09:54:30.910Z,9.04
2023-01-05T09:57:09.838Z,9.09
2023-01-05T09:59:43.345Z,9.09
2023-01-05T10:02:19.868Z,9.10
2023-01-05T10:04:48.868Z,9.14
2023-01-05T10:07:26.954Z,9.16
2023-01-05T10:09:59.465Z,9.14
2023-01-05T10:12:50.176Z,9.17
2023-01-05T10:15:21.975Z,9.20
2023-01-05T10:17:50.109Z,9.20
2023-01-05T10:20:21.748Z,9.20
2023-01-05T10:23:00.779Z,9.23
2023-01-05T10:25:39.093Z,9.25
2023-01-05T10:28:25.052Z,9.27
2023-01-05T10:30:58.983Z,9.28
2023-01-05T10:33:48.655Z,9.27
2023-01-05T10:37:12.843Z,9.26
2023-01-05T10:40:00.581Z,9.28
2023-01-05T10:42:43.440Z,9.31
2023-01-05T10:45:12.814Z,9.36
2023-01-05T10:47:45.076Z,9.39
2023-01-05T10:50:38.470Z,9.42
2023-01-05T10:53:12.086Z,9.43
2023-01-05T10:55:55.847Z,9.46
2023-01-05T10:58:25.379Z,9.47
2023-01-05T11:00:56.739Z,9.50
2023-01-05T11:04:14.345Z,9.50
2023-01-05T11:06:25.131Z,9.50
2023-01-05T11:08:53.320Z,9.55
2023-01-05T11:11:23.863Z,9.55
2023-01-05T11:13:55.701Z,9.56
2023-01-05T11:16:26.498Z,9.58
2023-01-05T11:18:58.511Z,9.58
2023-01-05T11:21:28.921Z,9.57
2023-01-05T11:23:58.323Z,9.57
2023-01-05T11:26:32.334Z,9.56
2023-01-05T11:29:04.853Z,9.60
2023-01-05T11:31:38.765Z,9.59
2023-01-05T11:34:15.615Z,9.61
2023-01-05T11:36:44.965Z,9.63
2023-01-05T11:39:24.559Z,9.63
2023-01-05T11:41:52.684Z,9.63
2023-01-05T11:44:24.017Z,9.65
2023-01-05T11:46:52.093Z,9.66
2023-01-05T11:49:21.414Z,9.65
2023-01-05T11:51:49.345Z,9.64
2023-01-05T11:54:35.551Z,9.67
2023-01-05T11:57:18.012Z,9.69
2023-01-05T11:59:46.753Z,9.65
2023-01-05T12:02:58.525Z,9.69
2023-01-05T12:05:37.703Z,9.65
2023-01-05T12:08:11.202Z,9.68
2023-01-05T12:11:09.345Z,9.68
2023-01-05T12:13:56.641Z,9.67
2023-01-05T12:16:38.961Z,9.68
2023-01-05T12:19:39.471Z,9.68
2023-01-05T12:22:32.220Z,9.69
2023-01-05T12:25:10.175Z,9.71
2023-01-05T12:27:54.318Z,9.69
2023-01-05T12:32:48.015Z,9.67
2023-01-05T12:36:48.716Z,9.61
2023-01-05T12:39:41.225Z,9.60
2023-01-05T12:42:37.681Z,9.62
2023-01-05T12:45:32.488Z,9.62
2023-01-05T12:48:03.997Z,9.63
2023-01-05T12:50:36.307Z,9.64
2023-01-05T12:53:16.665Z,9.59
2023-01-05T12:55:49.780Z,9.62
2023-01-05T12:58:24.627Z,9.62
2023-01-05T13:00:54.715Z,9.63
2023-01-05T13:03:27.745Z,9.62
2023-01-05T13:06:01.877Z,9.61
2023-01-05T13:08:36.596Z,9.60
2023-01-05T13:11:11.486Z,9.63
2023-01-05T13:13:42.443Z,9.63
2023-01-05T13:16:16.362Z,9.63
2023-01-05T13:18:50.003Z,9.65
2023-01-05T13:21:18.469Z,9.65
2023-01-05T13:23:49.882Z,9.63
2023-01-05T13:26:21.986Z,9.64
2023-01-05T13:28:53.589Z,9.64
2023-01-05T13:31:47.292Z,9.64
2023-01-05T13:34:38.082Z,9.64
2023-01-05T13:37:24.830Z,9.62
2023-01-05T13:40:09.975Z,9.61
2023-01-05T13:43:01.544Z,9.62
2023-01-05T13:46:01.969Z,9.57
2023-01-05T13:49:03.808Z,9.57
2023-01-05T13:51:49.121Z,9.58
2023-01-05T13:54:21.377Z,9.57
2023-01-05T13:56:50.830Z,9.57
2023-01-05T13:59:35.685Z,9.55
2023-01-05T14:02:27.125Z,9.53
2023-01-05T14:04:55.468Z,9.53
2023-01-05T14:07:23.790Z,9.52
2023-01-05T14:09:55.731Z,9.50
2023-01-05T14:12:46.599Z,9.49
2023-01-05T14:15:37.610Z,9.51
2023-01-05T14:18:06.136Z,9.49
2023-01-05T14:20:37.447Z,9.51
2023-01-05T14:23:43.913Z,9.49
2023-01-05T14:26:11.905Z,9.49
2023-01-05T14:28:46.054Z,9.46
2023-01-05T14:31:47.904Z,9.47
2023-01-05T14:34:18.288Z,9.48
2023-01-05T14:36:53.529Z,9.49
2023-01-05T14:39:29.913Z,9.45
2023-01-05T14:42:01.931Z,9.47
2023-01-05T14:44:35.995Z,9.45
2023-01-05T14:47:06.602Z,9.43
2023-01-05T14:49:38.195Z,9.43
2023-01-05T14:52:08.445Z,9.41
2023-01-05T14:55:21.682Z,9.40
2023-01-05T14:57:59.510Z,9.39
2023-01-05T15:00:56.133Z,9.39
2023-01-05T15:03:51.603Z,9.39
2023-01-05T15:06:26.233Z,9.35
2023-01-05T15:09:31.640Z,9.36
2023-01-05T15:12:42.121Z,9.32
2023-01-05T15:15:31.202Z,9.32
2023-01-05T15:18:35.756Z,9.31
2023-01-05T15:21:37.747Z,9.30
2023-01-05T15:24:21.194Z,9.29
2023-01-05T15:27:07.076Z,9.27
2023-01-05T15:29:48.342Z,9.27
2023-01-05T15:32:20.261Z,9.26
2023-01-05T15:34:54.561Z,9.25
2023-01-05T15:37:31.183Z,9.24
2023-01-05T15:40:03.878Z,9.23
2023-01-05T15:42:39.354Z,9.24
2023-01-05T15:45:17.372Z,9.22
2023-01-05T15:47:46.316Z,9.21
2023-01-05T15:50:20.351Z,9.20
2023-01-05T15:52:55.400Z,9.18
2023-01-05T15:55:24.483Z,9.19
2023-01-05T15:57:54.265Z,9.18
2023-01-05T16:00:24.884Z,9.18
2023-01-05T16:02:52.828Z,9.17
2023-01-05T16:05:22.263Z,9.15
2023-01-05T16:07:57.593Z,9.15
2023-01-05T16:10:30.790Z,9.12
2023-01-05T16:13:04.062Z,9.11
2023-01-05T16:15:35.062Z,9.08
2023-01-05T16:18:04.517Z,9.07
2023-01-05T16:20:33.173Z,9.08
2023-01-05T16:23:08.910Z,9.06
2023-01-05T16:25:42.213Z,9.06
2023-01-05T16:28:17.273Z,9.06
2023-01-05T16:30:47.201Z,9.05
2023-01-05T16:33:30.227Z,9.03
2023-01-05T16:36:13.269Z,9.04
2023-01-05T16:38:42.653Z,9.03
2023-01-05T16:41:16.525Z,9.02
2023-01-05T16:43:53.627Z,9.01
2023-01-05T16:46:29.060Z,9.00
2023-01-05T16:49:00.508Z,9.01
2023-01-05T16:51:40.724Z,8.97
2023-01-05T16:54:19.174Z,8.92
2023-01-05T16:56:57.745Z,8.86
2023-01-05T16:59:42.727Z,8.86
2023-01-05T17:02:31.071Z,8.83
2023-01-05T17:04:59.203Z,8.81
2023-01-05T17:07:27.244Z,8.84
2023-01-05T17:09:56.561Z,8.86
2023-01-05T17:12:24.431Z,8.85
2023-01-05T17:14:52.387Z,8.85
2023-01-05T17:17:20.265Z,8.85
2023-01-05T17:19:51.433Z,8.81
2023-01-05T17:22:21.310Z,8.81
2023-01-05T17:24:49.652Z,8.81
2023-01-05T17:27:18.930Z,8.78
2023-01-05T17:29:46.858Z,8.79
2023-01-05T17:32:14.991Z,8.79
2023-01-05T17:34:42.846Z,8.78
2023-01-05T17:37:16.053Z,8.74
2023-01-05T17:39:44.059Z,8.74
2023-01-05T17:42:29.401Z,8.77
2023-01-05T17:44:58.651Z,8.76
2023-01-05T17:47:26.463Z,8.73
2023-01-05T17:49:54.674Z,8.72
2023-01-05T17:52:22.558Z,8.74
2023-01-05T17:54:50.392Z,8.74
2023-01-05T17:57:18.254Z,8.74
2023-01-05T17:59:46.110Z,8.74
2023-01-05T18:02:15.471Z,8.74
2023-01-05T18:04:43.335Z,8.72
2023-01-05T18:07:11.188Z,8.74
2023-01-05T18:09:39.113Z,8.73
2023-01-05T18:12:07.551Z,8.75
2023-01-05T18:14:35.471Z,8.75
2023-01-05T18:17:03.331Z,8.73
2023-01-05T18:19:33.677Z,8.74
2023-01-05T18:22:01.895Z,8.75
2023-01-05T18:24:29.918Z,8.74
2023-01-05T18:26:57.848Z,8.75
2023-01-05T18:29:25.773Z,8.75
2023-01-05T18:31:54.098Z,8.72
2023-01-05T18:34:23.010Z,8.73
2023-01-05T18:36:58.503Z,8.75
2023-01-05T18:39:34.334Z,8.77
2023-01-05T18:42:02.547Z,8.77
2023-01-05T18:44:30.466Z,8.78
2023-01-05T18:46:58.341Z,8.78
2023-01-05T18:49:27.512Z,8.77
2023-01-05T18:51:57.113Z,8.78
2023-01-05T18:54:24.965Z,8.77
2023-01-05T18:56:52.913Z,8.76
2023-01-05T18:59:21.057Z,8.77
2023-01-05T19:01:49.158Z,8.77
2023-01-05T19:04:17.961Z,8.75
2023-01-05T19:06:46.018Z,8.77
2023-01-05T19:09:16.066Z,8.77
2023-01-05T19:11:46.680Z,8.74
2023-01-05T19:14:15.453Z,8.76
2023-01-05T19:16:43.588Z,8.73
2023-01-05T19:19:15.084Z,8.74
2023-01-05T19:21:45.133Z,8.75
2023-01-05T19:24:17.377Z,8.72
2023-01-05T19:26:46.433Z,8.71
2023-01-05T19:29:14.914Z,8.71
2023-01-05T19:31:43.624Z,8.69
2023-01-05T19:34:14.811Z,8.68
2023-01-05T19:36:42.679Z,8.64
2023-01-05T19:39:13.941Z,8.63
2023-01-05T19:41:46.526Z,8.63
2023-01-05T19:44:16.588Z,8.61
2023-01-05T19:46:45.614Z,8.61
2023-01-05T19:49:17.147Z,8.60
2023-01-05T19:51:45.668Z,8.63
2023-01-05T19:54:14.879Z,8.59
2023-01-05T19:56:45.549Z,8.62
2023-01-05T19:59:16.751Z,8.61
2023-01-05T20:01:45.167Z,8.62
2023-01-05T20:04:13.058Z,8.61
2023-01-05T20:06:42.678Z,8.60
2023-01-05T20:09:14.588Z,8.60
2023-01-05T20:11:51.658Z,8.62
2023-01-05T20:14:22.517Z,8.59
2023-01-05T20:16:55.250Z,8.61
2023-01-05T20:19:26.613Z,8.60
2023-01-05T20:21:55.666Z,8.62
2023-01-05T20:24:25.407Z,8.62
2023-01-05T20:26:56.779Z,8.63
2023-01-05T20:29:26.165Z,8.64
2023-01-05T20:31:56.011Z,8.63
2023-01-05T20:34:28.547Z,8.63
2023-01-05T20:36:56.680Z,8.60
2023-01-05T20:39:24.541Z,8.59
2023-01-05T20:41:55.387Z,8.62
2023-01-05T20:44:26.642Z,8.61
2023-01-05T20:46:55.280Z,8.60
2023-01-05T20:49:26.183Z,8.58
2023-01-05T20:51:54.723Z,8.55
2023-01-05T20:54:22.647Z,8.53
2023-01-05T20:56:50.584Z,8.48
2023-01-05T20:59:22.841Z,8.42
2023-01-05T21:01:51.874Z,8.48
2023-01-05T21:04:20.788Z,8.49
2023-01-05T21:06:49.134Z,8.49
2023-01-05T21:09:17.050Z,8.48
2023-01-05T21:11:46.446Z,8.47
2023-01-05T21:14:15.654Z,8.46
2023-01-05T21:16:47.036Z,8.41
2023-01-05T21:19:17.876Z,8.43
2023-01-05T21:21:46.575Z,8.42
2023-01-05T21:24:16.096Z,8.40
2023-01-05T21:26:44.404Z,8.39
2023-01-05T21:29:14.286Z,8.40
2023-01-05T21:31:42.182Z,8.40
2023-01-05T21:34:12.979Z,8.39
2023-01-05T21:36:44.901Z,8.37
2023-01-05T21:39:18.242Z,8.35
2023-01-05T21:42:04.477Z,8.33
2023-01-05T21:44:32.954Z,8.33
2023-01-05T21:47:01.340Z,8.28
2023-01-05T21:49:30.542Z,8.33
2023-01-05T21:52:15.962Z,8.33
2023-01-05T21:55:03.484Z,8.34
2023-01-05T21:57:31.529Z,8.35
2023-01-05T21:59:59.557Z,8.32
2023-01-05T22:02:27.450Z,8.31
2023-01-05T22:04:56.870Z,8.35
2023-01-05T22:07:24.797Z,8.35
2023-01-05T22:09:52.709Z,8.32
2023-01-05T22:12:20.588Z,8.35
2023-01-05T22:14:48.377Z,8.35
2023-01-05T22:17:16.203Z,8.37
2023-01-05T22:19:44.603Z,8.37
2023-01-05T22:22:13.900Z,8.38
2023-01-05T22:24:41.839Z,8.35
2023-01-05T22:27:09.690Z,8.37
2023-01-05T22:29:37.575Z,8.38
2023-01-05T22:32:05.977Z,8.36
2023-01-05T22:34:34.019Z,8.37
2023-01-05T22:37:01.898Z,8.40
2023-01-05T22:39:31.179Z,8.37
2023-01-05T22:41:59.157Z,8.39
2023-01-05T22:44:27.204Z,8.38
2023-01-05T22:46:55.119Z,8.38
2023-01-05T22:49:23.014Z,8.38
2023-01-05T22:51:50.947Z,8.38
2023-01-05T22:54:18.729Z,8.40
2023-01-05T22:56:47.962Z,8.37
2023-01-05T22:59:15.864Z,8.35
2023-01-05T23:01:45.147Z,8.35
2023-01-05T23:04:13.410Z,8.33
2023-01-05T23:06:41.344Z,8.31
2023-01-05T23:09:10.731Z,8.31
2023-01-05T23:11:40.767Z,8.31
2023-01-05T23:14:12.259Z,8.29
2023-01-05T23:16:40.480Z,8.30
2023-01-05T23:19:09.519Z,8.30
2023-01-05T23:21:37.958Z,8.32
2023-01-05T23:24:06.316Z,8.32
2023-01-05T23:26:34.172Z,8.30
2023-01-05T23:29:02.203Z,8.31
2023-01-05T23:31:31.425Z,8.31
2023-01-05T23:33:59.377Z,8.30
2023-01-05T23:36:27.290Z,8.31
2023-01-05T23:38:55.167Z,8.31
2023-01-05T23:41:23.113Z,8.32
2023-01-05T23:43:51.015Z,8.32
2023-01-05T23:46:21.017Z,8.33
2023-01-05T23:48:51.260Z,8.31
2023-01-05T23:51:19.416Z,8.33
2023-01-05T23:53:49.214Z,8.35
2023-01-05T23:56:19.415Z,8.32
2023-01-05T23:58:47.568Z,8.29
